Time,TemperatureF,DewpointF,PressureIn,WindDirection,WindDirectionDegrees,WindSpeedMPH,WindSpeedGustMPH,Humidity,HourlyPrecipIn,Conditions,Clouds,dailyrainin,SoftwareType,DateUTC
2013-03-10 00:14:00,63.4,42.0,29.97,South,177,3.0,6.0,45,0.00,,,0.00,weatherlink.com 1.10,2013-03-10 06:14:00,
2013-03-10 00:29:00,63.2,42.0,29.98,South,174,2.0,5.0,46,0.00,,,0.00,weatherlink.com 1.10,2013-03-10 06:29:00,
2013-03-10 00:45:00,63.1,42.0,29.98,SSW,194,0.0,4.0,47,0.00,,,0.00,weatherlink.com 1.10,2013-03-10 06:45:00,
2013-03-10 01:00:00,63.0,43.0,29.98,SSW,194,4.0,5.0,48,0.00,,,0.00,weatherlink.com 1.10,2013-03-10 07:00:00,
2013-03-10 01:15:00,62.6,43.0,29.98,SE,142,4.0,7.0,49,0.00,,,0.00,weatherlink.com 1.10,2013-03-10 07:15:00,
2013-03-10 01:30:00,61.8,43.0,29.98,SSW,203,2.0,5.0,51,0.00,,,0.00,weatherlink.com 1.10,2013-03-10 07:30:00,
2013-03-10 01:45:00,61.2,44.0,29.97,ESE,122,2.0,5.0,53,0.00,,,0.00,weatherlink.com 1.10,2013-03-10 07:45:00,
2013-03-10 03:00:00,61.1,44.0,29.96,South,169,3.0,5.0,54,0.00,,,0.00,weatherlink.com 1.10,2013-03-10 08:00:00,
2013-03-10 03:15:00,61.4,44.0,29.95,South,169,2.0,5.0,54,0.00,,,0.00,weatherlink.com 1.10,2013-03-10 08:15:00,
2013-03-10 03:30:00,61.2,45.0,29.95,South,176,1.0,6.0,56,0.00,,,0.00,weatherlink.com 1.10,2013-03-10 08:30:00,
2013-03-10 03:45:00,61.2,46.0,29.94,South,172,3.0,7.0,58,0.00,,,0.00,weatherlink.com 1.10,2013-03-10 08:45:00,
2013-03-10 04:00:00,61.1,46.0,29.94,SW,214,2.0,6.0,59,0.00,,,0.00,weatherlink.com 1.10,2013-03-10 09:00:00,
2013-03-10 04:15:00,61.0,47.0,29.93,South,179,1.0,5.0,60,0.00,,,0.00,weatherlink.com 1.10,2013-03-10 09:15:00,
2013-03-10 04:30:00,60.6,47.0,29.91,East,84,1.0,5.0,61,0.00,,,0.00,weatherlink.com 1.10,2013-03-10 09:30:00,
2013-03-10 04:45:00,60.5,47.0,29.92,SSW,204,4.0,9.0,62,0.00,,,0.00,weatherlink.com 1.10,2013-03-10 09:45:00,
2013-03-10 05:00:00,60.3,48.0,29.91,SW,214,7.0,7.0,64,0.00,,,0.00,weatherlink.com 1.10,2013-03-10 10:00:00,
2013-03-10 05:15:00,59.8,48.0,29.90,South,183,2.0,6.0,65,0.00,,,0.00,weatherlink.com 1.10,2013-03-10 10:15:00,
2013-03-10 05:30:00,59.5,48.0,29.90,SSE,160,2.0,4.0,67,0.00,,,0.00,weatherlink.com 1.10,2013-03-10 10:30:00,
2013-03-10 05:45:00,59.3,50.0,29.91,SSE,154,2.0,5.0,70,0.00,,,0.00,weatherlink.com 1.10,2013-03-10 10:45:00,
2013-03-10 06:00:00,59.3,50.0,29.91,SE,125,2.0,6.0,71,0.00,,,0.00,weatherlink.com 1.10,2013-03-10 11:00:00,
2013-03-10 06:15:00,59.4,50.0,29.92,SE,143,1.0,7.0,72,0.00,,,0.00,weatherlink.com 1.10,2013-03-10 11:15:00,
2013-03-10 06:30:00,59.6,51.0,29.92,South,176,3.0,6.0,72,0.00,,,0.00,weatherlink.com 1.10,2013-03-10 11:30:00,
2013-03-10 06:45:00,59.2,50.0,29.92,East,82,3.0,10.0,72,0.00,,,0.00,weatherlink.com 1.10,2013-03-10 11:45:00,
2013-03-10 07:00:00,58.8,50.0,29.91,SSE,153,3.0,5.0,73,0.00,,,0.00,weatherlink.com 1.10,2013-03-10 12:00:00,
2013-03-10 07:15:00,58.4,50.0,29.90,SE,146,3.0,7.0,73,0.00,,,0.00,weatherlink.com 1.10,2013-03-10 12:15:00,
2013-03-10 07:30:00,58.3,49.0,29.87,SSE,156,4.0,8.0,72,0.00,,,0.00,weatherlink.com 1.10,2013-03-10 12:30:00,
2013-03-10 07:45:00,58.2,49.0,29.88,SSE,148,2.0,5.0,72,0.00,,,0.00,weatherlink.com 1.10,2013-03-10 12:45:00,
2013-03-10 08:00:00,58.3,49.0,29.87,SE,124,2.0,8.0,71,0.00,,,0.00,weatherlink.com 1.10,2013-03-10 13:00:00,
2013-03-10 08:15:00,58.3,49.0,29.89,SSW,201,3.0,6.0,72,0.00,,,0.00,weatherlink.com 1.10,2013-03-10 13:15:00,
2013-03-10 08:30:00,58.8,50.0,29.90,SSE,165,2.0,5.0,72,0.00,,,0.00,weatherlink.com 1.10,2013-03-10 13:30:00,
2013-03-10 08:45:00,59.8,50.0,29.89,South,187,4.0,6.0,71,0.00,,,0.00,weatherlink.com 1.10,2013-03-10 13:45:00,
2013-03-10 09:00:00,60.6,51.0,29.89,SSE,152,6.0,9.0,71,0.00,,,0.00,weatherlink.com 1.10,2013-03-10 14:00:00,
2013-03-10 09:15:00,61.1,52.0,29.89,South,174,7.0,9.0,72,0.00,,,0.00,weatherlink.com 1.10,2013-03-10 14:15:00,
2013-03-10 09:30:00,61.3,52.0,29.90,South,180,5.0,13.0,72,0.00,,,0.00,weatherlink.com 1.10,2013-03-10 14:30:00,
2013-03-10 09:46:00,61.4,52.0,29.90,SE,146,3.0,14.0,72,0.00,,,0.00,weatherlink.com 1.10,2013-03-10 14:46:00,
2013-03-10 10:01:00,61.5,53.0,29.89,SSW,200,4.0,11.0,73,0.00,,,0.00,weatherlink.com 1.10,2013-03-10 15:01:00,
2013-03-10 10:16:00,62.0,53.0,29.88,SSW,201,5.0,12.0,73,0.00,,,0.00,weatherlink.com 1.10,2013-03-10 15:16:00,
2013-03-10 10:31:00,62.2,53.0,29.86,SE,125,5.0,14.0,72,0.00,,,0.00,weatherlink.com 1.10,2013-03-10 15:31:00,
2013-03-10 10:46:00,62.5,53.0,29.86,SSW,194,7.0,9.0,72,0.00,,,0.00,weatherlink.com 1.10,2013-03-10 15:46:00,
2013-03-10 11:01:00,63.5,54.0,29.86,SSE,156,5.0,12.0,71,0.00,,,0.00,weatherlink.com 1.10,2013-03-10 16:01:00,
2013-03-10 11:16:00,64.5,55.0,29.85,SSE,150,4.0,9.0,70,0.00,,,0.00,weatherlink.com 1.10,2013-03-10 16:16:00,
2013-03-10 11:31:00,64.4,55.0,29.85,SSE,158,3.0,9.0,71,0.00,,,0.00,weatherlink.com 1.10,2013-03-10 16:31:00,
2013-03-10 11:46:00,64.6,55.0,29.86,SSE,163,4.0,10.0,71,0.00,,,0.00,weatherlink.com 1.10,2013-03-10 16:46:00,
2013-03-10 12:02:00,65.2,55.0,29.85,SE,135,6.0,10.0,70,0.00,,,0.00,weatherlink.com 1.10,2013-03-10 17:02:00,
2013-03-10 12:16:00,65.2,56.0,29.85,ESE,110,6.0,16.0,71,0.00,,,0.00,weatherlink.com 1.10,2013-03-10 17:16:00,
2013-03-10 12:31:00,65.0,56.0,29.85,SSW,208,7.0,11.0,72,0.00,,,0.00,weatherlink.com 1.10,2013-03-10 17:31:00,
2013-03-10 12:46:00,64.7,55.0,29.83,SSE,161,4.0,10.0,72,0.00,,,0.00,weatherlink.com 1.10,2013-03-10 17:46:00,
2013-03-10 13:01:00,64.6,56.0,29.82,ENE,73,8.0,13.0,74,0.00,,,0.00,weatherlink.com 1.10,2013-03-10 18:01:00,
2013-03-10 13:16:00,63.4,57.0,29.83,SE,136,2.0,8.0,79,0.00,,,0.00,weatherlink.com 1.10,2013-03-10 18:16:00,
2013-03-10 13:31:00,63.0,57.0,29.82,ENE,78,4.0,12.0,80,0.00,,,0.00,weatherlink.com 1.10,2013-03-10 18:31:00,
2013-03-10 13:46:00,62.9,57.0,29.80,SE,145,2.0,7.0,80,0.00,,,0.00,weatherlink.com 1.10,2013-03-10 18:46:00,
2013-03-10 14:01:00,63.5,57.0,29.79,SE,140,3.0,9.0,79,0.00,,,0.00,weatherlink.com 1.10,2013-03-10 19:01:00,
2013-03-10 14:16:00,64.0,58.0,29.79,South,188,6.0,8.0,80,0.01,,,0.01,weatherlink.com 1.10,2013-03-10 19:16:00,
2013-03-10 14:31:00,63.9,58.0,29.78,SSW,208,4.0,9.0,80,0.01,,,0.01,weatherlink.com 1.10,2013-03-10 19:31:00,
2013-03-10 14:46:00,63.5,58.0,29.77,SW,215,5.0,10.0,82,0.01,,,0.01,weatherlink.com 1.10,2013-03-10 19:46:00,
2013-03-10 15:01:00,63.1,58.0,29.79,South,188,2.0,6.0,82,0.01,,,0.01,weatherlink.com 1.10,2013-03-10 20:01:00,
2013-03-10 15:16:00,56.3,52.0,29.82,West,276,10.0,13.0,84,0.11,,,0.12,weatherlink.com 1.10,2013-03-10 20:16:00,
2013-03-10 15:31:00,53.2,51.0,29.82,NNW,335,2.0,10.0,91,0.26,,,0.27,weatherlink.com 1.10,2013-03-10 20:31:00,
2013-03-10 15:46:00,52.7,51.0,29.83,North,354,3.0,7.0,92,0.31,,,0.32,weatherlink.com 1.10,2013-03-10 20:46:00,
2013-03-10 16:01:00,52.7,51.0,29.83,WNW,301,1.0,4.0,93,0.42,,,0.43,weatherlink.com 1.10,2013-03-10 21:01:00,
2013-03-10 16:17:00,52.5,51.0,29.84,North,9,1.0,7.0,93,0.34,,,0.47,weatherlink.com 1.10,2013-03-10 21:17:00,
2013-03-10 16:46:00,52.4,51.0,29.83,NE,36,0.0,1.0,94,0.32,,,0.64,weatherlink.com 1.10,2013-03-10 21:46:00,
2013-03-10 17:01:00,52.4,51.0,29.82,ENE,78,0.0,3.0,94,0.33,,,0.76,weatherlink.com 1.10,2013-03-10 22:01:00,
2013-03-10 17:16:00,52.5,51.0,29.81,ENE,58,2.0,3.0,94,0.36,,,0.83,weatherlink.com 1.10,2013-03-10 22:16:00,
2013-03-10 17:31:00,52.5,51.0,29.81,East,89,0.0,0.0,94,0.27,,,0.86,weatherlink.com 1.10,2013-03-10 22:31:00,
2013-03-10 17:47:00,52.4,51.0,29.79,East,96,1.0,2.0,95,0.26,,,0.90,weatherlink.com 1.10,2013-03-10 22:47:00,
2013-03-10 18:17:00,52.3,51.0,29.81,SW,232,1.0,1.0,95,0.15,,,0.98,weatherlink.com 1.10,2013-03-10 23:17:00,
2013-03-10 18:32:00,52.3,51.0,29.83,East,79,2.0,2.0,95,0.12,,,0.98,weatherlink.com 1.10,2013-03-10 23:32:00,
2013-03-10 18:47:00,52.3,51.0,29.84,SSE,159,0.0,1.0,95,0.09,,,1.00,weatherlink.com 1.10,2013-03-10 23:47:00,
2013-03-10 19:02:00,52.4,51.0,29.82,WSW,239,0.0,0.0,95,0.09,,,1.05,weatherlink.com 1.10,2013-03-11 00:02:00,
2013-03-10 19:17:00,52.3,51.0,29.82,ESE,105,0.0,0.0,95,0.08,,,1.06,weatherlink.com 1.10,2013-03-11 00:17:00,
2013-03-10 19:32:00,52.3,51.0,29.85,SSW,203,0.0,2.0,95,0.09,,,1.07,weatherlink.com 1.10,2013-03-11 00:32:00,
2013-03-10 19:47:00,52.3,51.0,29.83,SSW,203,0.0,2.0,95,0.08,,,1.09,weatherlink.com 1.10,2013-03-11 00:47:00,
2013-03-10 20:02:00,52.4,51.0,29.86,SSW,210,0.0,2.0,95,0.05,,,1.10,weatherlink.com 1.10,2013-03-11 01:02:00,
2013-03-10 20:17:00,52.6,51.0,29.85,SSE,159,0.0,3.0,95,0.05,,,1.11,weatherlink.com 1.10,2013-03-11 01:17:00,
2013-03-10 20:32:00,52.6,51.0,29.84,SSW,200,0.0,2.0,95,0.08,,,1.15,weatherlink.com 1.10,2013-03-11 01:32:00,
2013-03-10 20:47:00,52.6,51.0,29.84,SSW,212,0.0,1.0,95,0.06,,,1.15,weatherlink.com 1.10,2013-03-11 01:47:00,
2013-03-10 21:02:00,52.6,51.0,29.85,SSW,194,1.0,2.0,95,0.07,,,1.17,weatherlink.com 1.10,2013-03-11 02:02:00,
2013-03-10 21:17:00,52.6,51.0,29.85,SSW,198,1.0,2.0,95,0.08,,,1.19,weatherlink.com 1.10,2013-03-11 02:17:00,
2013-03-10 21:32:00,52.6,51.0,29.87,SW,219,1.0,3.0,95,0.04,,,1.19,weatherlink.com 1.10,2013-03-11 02:32:00,
2013-03-10 21:47:00,52.7,51.0,29.87,SSW,193,0.0,3.0,95,0.04,,,1.19,weatherlink.com 1.10,2013-03-11 02:47:00,
2013-03-10 22:02:00,52.7,51.0,29.86,SW,227,1.0,4.0,95,0.02,,,1.19,weatherlink.com 1.10,2013-03-11 03:02:00,
2013-03-10 22:17:00,52.7,51.0,29.86,SSW,203,1.0,2.0,95,0.00,,,1.19,weatherlink.com 1.10,2013-03-11 03:17:00,
2013-03-10 22:32:00,52.8,52.0,29.87,SE,137,1.0,2.0,95,0.00,,,1.19,weatherlink.com 1.10,2013-03-11 03:32:00,
2013-03-10 22:47:00,52.8,52.0,29.87,SW,224,1.0,2.0,95,0.00,,,1.19,weatherlink.com 1.10,2013-03-11 03:47:00,
2013-03-10 23:02:00,52.8,52.0,29.85,SSW,211,0.0,2.0,95,0.00,,,1.19,weatherlink.com 1.10,2013-03-11 04:02:00,
2013-03-10 23:17:00,52.8,52.0,29.86,SSW,211,1.0,2.0,95,0.00,,,1.19,weatherlink.com 1.10,2013-03-11 04:17:00,
2013-03-10 23:32:00,52.8,52.0,29.87,SSW,210,1.0,3.0,95,0.00,,,1.19,weatherlink.com 1.10,2013-03-11 04:32:00,
2013-03-10 23:47:00,52.8,52.0,29.87,WSW,245,3.0,4.0,95,0.00,,,1.19,weatherlink.com 1.10,2013-03-11 04:47:00,